sensor_id;sensor_type;location;lat;lon;timestamp;P1;durP1;ratioP1;P2;durP2;ratioP2
48588;SDS011;34369;51.174;6.738;2023-02-28T00:00:27;48.67;;;45.93;;
48588;SDS011;34369;51.174;6.738;2023-02-28T00:02:59;46.90;;;44.30;;
48588;SDS011;34369;51.174;6.738;2023-02-28T00:05:33;43.70;;;41.20;;
48588;SDS011;34369;51.174;6.738;2023-02-28T00:08:04;44.73;;;42.13;;
48588;SDS011;34369;51.174;6.738;2023-02-28T00:10:38;42.23;;;39.50;;
48588;SDS011;34369;51.174;6.738;2023-02-28T00:13:09;46.07;;;43.47;;
48588;SDS011;34369;51.174;6.738;2023-02-28T00:15:41;47.10;;;44.40;;
48588;SDS011;34369;51.174;6.738;2023-02-28T00:18:15;41.77;;;39.23;;
48588;SDS011;34369;51.174;6.738;2023-02-28T00:20:47;41.93;;;39.53;;
48588;SDS011;34369;51.174;6.738;2023-02-28T00:23:19;47.47;;;44.67;;
48588;SDS011;34369;51.174;6.738;2023-02-28T00:25:52;46.57;;;43.97;;
48588;SDS011;34369;51.174;6.738;2023-02-28T00:28:25;47.23;;;44.63;;
48588;SDS011;34369;51.174;6.738;2023-02-28T00:30:57;47.03;;;44.33;;
48588;SDS011;34369;51.174;6.738;2023-02-28T00:33:29;46.10;;;43.50;;
48588;SDS011;34369;51.174;6.738;2023-02-28T00:38:48;45.27;;;42.57;;
48588;SDS011;34369;51.174;6.738;2023-02-28T00:41:23;46.23;;;43.63;;
48588;SDS011;34369;51.174;6.738;2023-02-28T00:44:07;45.93;;;43.17;;
48588;SDS011;34369;51.174;6.738;2023-02-28T00:46:40;47.70;;;44.83;;
48588;SDS011;34369;51.174;6.738;2023-02-28T00:49:16;45.28;;;42.67;;
48588;SDS011;34369;51.174;6.738;2023-02-28T00:51:51;46.57;;;43.87;;
48588;SDS011;34369;51.174;6.738;2023-02-28T00:54:32;48.20;;;45.50;;
48588;SDS011;34369;51.174;6.738;2023-02-28T00:57:06;50.10;;;47.37;;
48588;SDS011;34369;51.174;6.738;2023-02-28T00:59:42;45.20;;;42.55;;
48588;SDS011;34369;51.174;6.738;2023-02-28T01:02:15;48.27;;;45.50;;
48588;SDS011;34369;51.174;6.738;2023-02-28T01:04:51;46.90;;;44.20;;
48588;SDS011;34369;51.174;6.738;2023-02-28T01:07:27;46.83;;;44.13;;
48588;SDS011;34369;51.174;6.738;2023-02-28T01:10:03;45.93;;;43.43;;
48588;SDS011;34369;51.174;6.738;2023-02-28T01:12:40;47.47;;;44.70;;
48588;SDS011;34369;51.174;6.738;2023-02-28T01:15:13;45.77;;;43.27;;
48588;SDS011;34369;51.174;6.738;2023-02-28T01:17:50;45.75;;;43.15;;
48588;SDS011;34369;51.174;6.738;2023-02-28T01:20:29;50.67;;;47.87;;
48588;SDS011;34369;51.174;6.738;2023-02-28T01:23:06;46.20;;;43.70;;
48588;SDS011;34369;51.174;6.738;2023-02-28T01:25:43;46.90;;;44.30;;
48588;SDS011;34369;51.174;6.738;2023-02-28T01:28:17;43.38;;;40.88;;
48588;SDS011;34369;51.174;6.738;2023-02-28T01:30:51;44.30;;;41.80;;
48588;SDS011;34369;51.174;6.738;2023-02-28T01:33:25;44.53;;;41.80;;
48588;SDS011;34369;51.174;6.738;2023-02-28T01:35:59;43.00;;;40.13;;
48588;SDS011;34369;51.174;6.738;2023-02-28T01:38:38;47.20;;;44.60;;
48588;SDS011;34369;51.174;6.738;2023-02-28T01:41:17;45.70;;;43.15;;
48588;SDS011;34369;51.174;6.738;2023-02-28T01:44:03;46.90;;;44.23;;
48588;SDS011;34369;51.174;6.738;2023-02-28T01:46:41;44.97;;;42.47;;
48588;SDS011;34369;51.174;6.738;2023-02-28T01:49:18;44.63;;;42.13;;
48588;SDS011;34369;51.174;6.738;2023-02-28T01:51:54;46.07;;;43.47;;
48588;SDS011;34369;51.174;6.738;2023-02-28T01:54:32;44.47;;;42.00;;
48588;SDS011;34369;51.174;6.738;2023-02-28T01:57:13;45.80;;;43.27;;
48588;SDS011;34369;51.174;6.738;2023-02-28T01:59:53;43.97;;;41.57;;
48588;SDS011;34369;51.174;6.738;2023-02-28T02:02:34;45.63;;;42.93;;
48588;SDS011;34369;51.174;6.738;2023-02-28T02:05:11;44.55;;;42.05;;
48588;SDS011;34369;51.174;6.738;2023-02-28T02:07:48;45.63;;;43.03;;
48588;SDS011;34369;51.174;6.738;2023-02-28T02:10:29;50.07;;;47.23;;
48588;SDS011;34369;51.174;6.738;2023-02-28T02:13:17;43.13;;;40.63;;
48588;SDS011;34369;51.174;6.738;2023-02-28T02:16:30;46.47;;;43.57;;
48588;SDS011;34369;51.174;6.738;2023-02-28T02:19:25;45.50;;;42.90;;
48588;SDS011;34369;51.174;6.738;2023-02-28T02:22:38;45.20;;;42.70;;
48588;SDS011;34369;51.174;6.738;2023-02-28T02:25:47;45.47;;;42.97;;
48588;SDS011;34369;51.174;6.738;2023-02-28T02:31:49;47.05;;;44.45;;
48588;SDS011;34369;51.174;6.738;2023-02-28T02:34:59;47.10;;;44.40;;
48588;SDS011;34369;51.174;6.738;2023-02-28T02:37:46;48.20;;;45.60;;
48588;SDS011;34369;51.174;6.738;2023-02-28T02:40:29;48.13;;;45.33;;
48588;SDS011;34369;51.174;6.738;2023-02-28T02:43:11;47.60;;;45.00;;
48588;SDS011;34369;51.174;6.738;2023-02-28T02:45:52;48.20;;;45.60;;
48588;SDS011;34369;51.174;6.738;2023-02-28T02:48:31;46.13;;;43.43;;
48588;SDS011;34369;51.174;6.738;2023-02-28T02:51:10;48.13;;;45.45;;
48588;SDS011;34369;51.174;6.738;2023-02-28T02:53:47;45.83;;;43.23;;
48588;SDS011;34369;51.174;6.738;2023-02-28T02:56:27;50.43;;;47.63;;
48588;SDS011;34369;51.174;6.738;2023-02-28T02:59:05;48.63;;;45.93;;
48588;SDS011;34369;51.174;6.738;2023-02-28T03:01:41;46.65;;;44.10;;
48588;SDS011;34369;51.174;6.738;2023-02-28T03:04:16;46.87;;;44.23;;
48588;SDS011;34369;51.174;6.738;2023-02-28T03:06:52;46.73;;;44.13;;
48588;SDS011;34369;51.174;6.738;2023-02-28T03:09:25;48.13;;;45.43;;
48588;SDS011;34369;51.174;6.738;2023-02-28T03:11:58;47.70;;;45.10;;
48588;SDS011;34369;51.174;6.738;2023-02-28T03:14:34;47.07;;;44.50;;
48588;SDS011;34369;51.174;6.738;2023-02-28T03:17:30;46.83;;;44.23;;
48588;SDS011;34369;51.174;6.738;2023-02-28T03:20:25;49.03;;;46.23;;
48588;SDS011;34369;51.174;6.738;2023-02-28T03:23:20;49.17;;;46.40;;
48588;SDS011;34369;51.174;6.738;2023-02-28T03:26:02;50.23;;;47.43;;
48588;SDS011;34369;51.174;6.738;2023-02-28T03:28:43;45.90;;;43.30;;
48588;SDS011;34369;51.174;6.738;2023-02-28T03:31:27;48.83;;;46.17;;
48588;SDS011;34369;51.174;6.738;2023-02-28T03:36:30;49.17;;;46.50;;
48588;SDS011;34369;51.174;6.738;2023-02-28T03:39:14;50.27;;;47.47;;
48588;SDS011;34369;51.174;6.738;2023-02-28T03:41:51;46.37;;;43.77;;
48588;SDS011;34369;51.174;6.738;2023-02-28T03:44:32;49.70;;;47.00;;
48588;SDS011;34369;51.174;6.738;2023-02-28T03:47:10;50.80;;;47.83;;
48588;SDS011;34369;51.174;6.738;2023-02-28T03:49:46;47.15;;;44.53;;
48588;SDS011;34369;51.174;6.738;2023-02-28T03:52:27;48.03;;;45.43;;
48588;SDS011;34369;51.174;6.738;2023-02-28T03:55:07;48.67;;;45.97;;
48588;SDS011;34369;51.174;6.738;2023-02-28T03:57:50;47.37;;;44.73;;
48588;SDS011;34369;51.174;6.738;2023-02-28T04:00:33;48.17;;;45.47;;
48588;SDS011;34369;51.174;6.738;2023-02-28T04:03:10;44.67;;;42.17;;
48588;SDS011;34369;51.174;6.738;2023-02-28T04:05:46;49.87;;;47.07;;
48588;SDS011;34369;51.174;6.738;2023-02-28T04:08:24;44.17;;;41.57;;
48588;SDS011;34369;51.174;6.738;2023-02-28T04:10:58;48.60;;;45.90;;
48588;SDS011;34369;51.174;6.738;2023-02-28T04:13:37;47.47;;;44.87;;
48588;SDS011;34369;51.174;6.738;2023-02-28T04:16:10;49.40;;;46.63;;
48588;SDS011;34369;51.174;6.738;2023-02-28T04:18:42;46.63;;;44.03;;
48588;SDS011;34369;51.174;6.738;2023-02-28T04:21:15;46.03;;;43.50;;
48588;SDS011;34369;51.174;6.738;2023-02-28T04:23:52;49.37;;;46.67;;
48588;SDS011;34369;51.174;6.738;2023-02-28T04:26:25;48.00;;;45.37;;
48588;SDS011;34369;51.174;6.738;2023-02-28T04:29:02;49.80;;;47.20;;
48588;SDS011;34369;51.174;6.738;2023-02-28T04:31:37;46.87;;;44.27;;
48588;SDS011;34369;51.174;6.738;2023-02-28T04:34:10;47.50;;;44.87;;
48588;SDS011;34369;51.174;6.738;2023-02-28T04:36:43;47.90;;;45.20;;
48588;SDS011;34369;51.174;6.738;2023-02-28T04:39:21;46.70;;;44.08;;
48588;SDS011;34369;51.174;6.738;2023-02-28T04:41:55;50.23;;;47.53;;
48588;SDS011;34369;51.174;6.738;2023-02-28T04:44:28;49.10;;;46.47;;
48588;SDS011;34369;51.174;6.738;2023-02-28T04:47:02;49.70;;;47.00;;
48588;SDS011;34369;51.174;6.738;2023-02-28T04:49:36;47.00;;;44.40;;
48588;SDS011;34369;51.174;6.738;2023-02-28T04:52:12;48.50;;;45.70;;
48588;SDS011;34369;51.174;6.738;2023-02-28T04:54:47;47.57;;;44.77;;
48588;SDS011;34369;51.174;6.738;2023-02-28T04:57:20;47.90;;;45.20;;
48588;SDS011;34369;51.174;6.738;2023-02-28T04:59:52;49.40;;;46.70;;
48588;SDS011;34369;51.174;6.738;2023-02-28T05:02:25;45.57;;;43.07;;
48588;SDS011;34369;51.174;6.738;2023-02-28T05:05:00;48.80;;;46.10;;
48588;SDS011;34369;51.174;6.738;2023-02-28T05:07:33;49.73;;;46.93;;
48588;SDS011;34369;51.174;6.738;2023-02-28T05:10:11;45.53;;;42.93;;
48588;SDS011;34369;51.174;6.738;2023-02-28T05:12:44;48.37;;;45.43;;
48588;SDS011;34369;51.174;6.738;2023-02-28T05:15:18;46.50;;;43.90;;
48588;SDS011;34369;51.174;6.738;2023-02-28T05:17:51;46.77;;;44.17;;
48588;SDS011;34369;51.174;6.738;2023-02-28T05:20:25;49.47;;;46.70;;
48588;SDS011;34369;51.174;6.738;2023-02-28T05:22:59;49.80;;;47.00;;
48588;SDS011;34369;51.174;6.738;2023-02-28T05:25:39;48.43;;;45.83;;
48588;SDS011;34369;51.174;6.738;2023-02-28T05:28:15;50.30;;;47.53;;
48588;SDS011;34369;51.174;6.738;2023-02-28T05:30:47;51.13;;;48.33;;
48588;SDS011;34369;51.174;6.738;2023-02-28T05:33:21;48.60;;;46.00;;
48588;SDS011;34369;51.174;6.738;2023-02-28T05:35:53;49.00;;;46.30;;
48588;SDS011;34369;51.174;6.738;2023-02-28T05:38:27;47.37;;;44.77;;
48588;SDS011;34369;51.174;6.738;2023-02-28T05:41:09;47.40;;;44.78;;
48588;SDS011;34369;51.174;6.738;2023-02-28T05:43:48;49.70;;;47.07;;
48588;SDS011;34369;51.174;6.738;2023-02-28T05:46:23;49.53;;;46.83;;
48588;SDS011;34369;51.174;6.738;2023-02-28T05:49:05;50.03;;;47.33;;
48588;SDS011;34369;51.174;6.738;2023-02-28T05:51:42;46.80;;;44.20;;
48588;SDS011;34369;51.174;6.738;2023-02-28T05:54:18;49.72;;;47.13;;
48588;SDS011;34369;51.174;6.738;2023-02-28T05:57:14;48.55;;;45.88;;
48588;SDS011;34369;51.174;6.738;2023-02-28T05:59:53;52.35;;;49.55;;
48588;SDS011;34369;51.174;6.738;2023-02-28T06:06:34;49.17;;;46.57;;
48588;SDS011;34369;51.174;6.738;2023-02-28T06:09:51;50.17;;;47.47;;
48588;SDS011;34369;51.174;6.738;2023-02-28T06:16:46;46.20;;;43.60;;
48588;SDS011;34369;51.174;6.738;2023-02-28T06:22:34;51.70;;;48.90;;
48588;SDS011;34369;51.174;6.738;2023-02-28T06:25:06;48.70;;;45.83;;
48588;SDS011;34369;51.174;6.738;2023-02-28T06:27:40;48.67;;;45.97;;
48588;SDS011;34369;51.174;6.738;2023-02-28T06:30:13;48.73;;;46.13;;
48588;SDS011;34369;51.174;6.738;2023-02-28T06:32:45;48.77;;;46.17;;
48588;SDS011;34369;51.174;6.738;2023-02-28T06:35:19;48.97;;;46.27;;
48588;SDS011;34369;51.174;6.738;2023-02-28T06:37:52;46.00;;;43.50;;
48588;SDS011;34369;51.174;6.738;2023-02-28T06:40:24;46.80;;;44.20;;
48588;SDS011;34369;51.174;6.738;2023-02-28T06:42:56;47.00;;;44.43;;
48588;SDS011;34369;51.174;6.738;2023-02-28T06:45:28;47.60;;;45.00;;
48588;SDS011;34369;51.174;6.738;2023-02-28T06:48:00;48.40;;;45.70;;
48588;SDS011;34369;51.174;6.738;2023-02-28T06:50:32;51.17;;;48.27;;
48588;SDS011;34369;51.174;6.738;2023-02-28T06:53:05;48.07;;;45.10;;
48588;SDS011;34369;51.174;6.738;2023-02-28T06:55:37;49.13;;;46.10;;
48588;SDS011;34369;51.174;6.738;2023-02-28T06:58:10;49.67;;;46.87;;
48588;SDS011;34369;51.174;6.738;2023-02-28T07:00:50;45.10;;;42.60;;
48588;SDS011;34369;51.174;6.738;2023-02-28T07:03:22;49.80;;;47.13;;
48588;SDS011;34369;51.174;6.738;2023-02-28T07:05:54;48.70;;;46.10;;
48588;SDS011;34369;51.174;6.738;2023-02-28T07:08:28;48.53;;;45.93;;
48588;SDS011;34369;51.174;6.738;2023-02-28T07:11:01;46.40;;;43.80;;
48588;SDS011;34369;51.174;6.738;2023-02-28T07:13:34;49.43;;;46.80;;
48588;SDS011;34369;51.174;6.738;2023-02-28T07:16:07;46.73;;;44.07;;
48588;SDS011;34369;51.174;6.738;2023-02-28T07:18:43;43.70;;;41.27;;
48588;SDS011;34369;51.174;6.738;2023-02-28T07:21:15;44.87;;;42.27;;
48588;SDS011;34369;51.174;6.738;2023-02-28T07:23:49;42.23;;;39.83;;
48588;SDS011;34369;51.174;6.738;2023-02-28T07:26:21;43.80;;;41.20;;
48588;SDS011;34369;51.174;6.738;2023-02-28T07:28:53;36.47;;;34.23;;
48588;SDS011;34369;51.174;6.738;2023-02-28T07:31:25;37.43;;;35.20;;
48588;SDS011;34369;51.174;6.738;2023-02-28T07:33:57;37.47;;;35.17;;
48588;SDS011;34369;51.174;6.738;2023-02-28T07:36:29;37.43;;;35.13;;
48588;SDS011;34369;51.174;6.738;2023-02-28T07:39:02;37.00;;;34.63;;
48588;SDS011;34369;51.174;6.738;2023-02-28T07:41:34;35.67;;;33.50;;
48588;SDS011;34369;51.174;6.738;2023-02-28T07:44:13;36.67;;;34.47;;
48588;SDS011;34369;51.174;6.738;2023-02-28T07:46:45;35.90;;;33.70;;
48588;SDS011;34369;51.174;6.738;2023-02-28T07:49:17;36.47;;;33.97;;
48588;SDS011;34369;51.174;6.738;2023-02-28T07:51:48;35.67;;;33.43;;
48588;SDS011;34369;51.174;6.738;2023-02-28T07:54:22;34.27;;;32.07;;
48588;SDS011;34369;51.174;6.738;2023-02-28T07:56:53;34.63;;;32.40;;
48588;SDS011;34369;51.174;6.738;2023-02-28T07:59:25;35.27;;;33.17;;
48588;SDS011;34369;51.174;6.738;2023-02-28T08:01:57;34.67;;;32.47;;
48588;SDS011;34369;51.174;6.738;2023-02-28T08:04:31;35.87;;;33.57;;
48588;SDS011;34369;51.174;6.738;2023-02-28T08:07:03;36.17;;;33.20;;
48588;SDS011;34369;51.174;6.738;2023-02-28T08:09:36;35.80;;;33.60;;
48588;SDS011;34369;51.174;6.738;2023-02-28T08:12:08;33.90;;;31.70;;
48588;SDS011;34369;51.174;6.738;2023-02-28T08:14:42;33.50;;;31.30;;
48588;SDS011;34369;51.174;6.738;2023-02-28T08:17:13;33.43;;;31.27;;
48588;SDS011;34369;51.174;6.738;2023-02-28T08:19:45;33.33;;;31.17;;
48588;SDS011;34369;51.174;6.738;2023-02-28T08:22:17;31.33;;;29.33;;
48588;SDS011;34369;51.174;6.738;2023-02-28T08:24:50;32.03;;;30.03;;
48588;SDS011;34369;51.174;6.738;2023-02-28T08:27:22;32.03;;;30.03;;
48588;SDS011;34369;51.174;6.738;2023-02-28T08:29:54;33.03;;;30.93;;
48588;SDS011;34369;51.174;6.738;2023-02-28T08:32:26;32.47;;;30.47;;
48588;SDS011;34369;51.174;6.738;2023-02-28T08:34:58;32.53;;;30.53;;
48588;SDS011;34369;51.174;6.738;2023-02-28T08:37:30;32.40;;;30.30;;
48588;SDS011;34369;51.174;6.738;2023-02-28T08:40:03;32.47;;;30.48;;
48588;SDS011;34369;51.174;6.738;2023-02-28T08:42:36;31.67;;;29.57;;
48588;SDS011;34369;51.174;6.738;2023-02-28T08:45:08;31.70;;;29.70;;
48588;SDS011;34369;51.174;6.738;2023-02-28T08:47:41;30.92;;;28.98;;
48588;SDS011;34369;51.174;6.738;2023-02-28T08:50:13;30.50;;;28.60;;
48588;SDS011;34369;51.174;6.738;2023-02-28T08:52:46;30.90;;;28.90;;
48588;SDS011;34369;51.174;6.738;2023-02-28T08:55:19;29.13;;;27.30;;
48588;SDS011;34369;51.174;6.738;2023-02-28T08:57:51;29.55;;;27.65;;
48588;SDS011;34369;51.174;6.738;2023-02-28T09:00:24;28.77;;;26.90;;
48588;SDS011;34369;51.174;6.738;2023-02-28T09:02:56;28.33;;;26.45;;
48588;SDS011;34369;51.174;6.738;2023-02-28T09:05:28;29.35;;;27.45;;
48588;SDS011;34369;51.174;6.738;2023-02-28T09:08:00;27.40;;;25.60;;
48588;SDS011;34369;51.174;6.738;2023-02-28T09:10:33;27.35;;;25.55;;
48588;SDS011;34369;51.174;6.738;2023-02-28T09:13:06;26.92;;;25.05;;
48588;SDS011;34369;51.174;6.738;2023-02-28T09:15:38;26.85;;;25.05;;
48588;SDS011;34369;51.174;6.738;2023-02-28T09:18:10;26.77;;;24.98;;
48588;SDS011;34369;51.174;6.738;2023-02-28T09:20:42;26.33;;;24.52;;
48588;SDS011;34369;51.174;6.738;2023-02-28T09:23:15;26.17;;;24.27;;
48588;SDS011;34369;51.174;6.738;2023-02-28T09:25:49;27.40;;;25.60;;
48588;SDS011;34369;51.174;6.738;2023-02-28T09:28:22;27.75;;;25.95;;
48588;SDS011;34369;51.174;6.738;2023-02-28T09:30:54;27.85;;;26.05;;
48588;SDS011;34369;51.174;6.738;2023-02-28T09:33:27;27.67;;;25.88;;
48588;SDS011;34369;51.174;6.738;2023-02-28T09:36:00;29.88;;;27.88;;
48588;SDS011;34369;51.174;6.738;2023-02-28T09:38:33;30.93;;;29.03;;
48588;SDS011;34369;51.174;6.738;2023-02-28T09:41:11;30.10;;;28.20;;
48588;SDS011;34369;51.174;6.738;2023-02-28T09:43:46;31.60;;;29.50;;
48588;SDS011;34369;51.174;6.738;2023-02-28T09:46:29;32.45;;;30.45;;
48588;SDS011;34369;51.174;6.738;2023-02-28T09:49:05;31.70;;;29.70;;
48588;SDS011;34369;51.174;6.738;2023-02-28T09:51:45;32.40;;;30.40;;
48588;SDS011;34369;51.174;6.738;2023-02-28T09:54:22;32.33;;;30.33;;
48588;SDS011;34369;51.174;6.738;2023-02-28T09:56:59;30.20;;;28.30;;
48588;SDS011;34369;51.174;6.738;2023-02-28T09:59:39;32.67;;;30.67;;
48588;SDS011;34369;51.174;6.738;2023-02-28T10:02:44;34.47;;;32.37;;
48588;SDS011;34369;51.174;6.738;2023-02-28T10:05:38;32.50;;;30.50;;
48588;SDS011;34369;51.174;6.738;2023-02-28T10:08:14;32.00;;;30.00;;
48588;SDS011;34369;51.174;6.738;2023-02-28T10:10:51;34.30;;;32.20;;
48588;SDS011;34369;51.174;6.738;2023-02-28T10:13:31;37.43;;;35.00;;
48588;SDS011;34369;51.174;6.738;2023-02-28T10:16:07;35.80;;;33.50;;
48588;SDS011;34369;51.174;6.738;2023-02-28T10:18:43;33.92;;;31.83;;
48588;SDS011;34369;51.174;6.738;2023-02-28T10:21:20;37.30;;;35.10;;
48588;SDS011;34369;51.174;6.738;2023-02-28T10:24:01;36.60;;;34.40;;
48588;SDS011;34369;51.174;6.738;2023-02-28T10:26:36;35.30;;;33.20;;
48588;SDS011;34369;51.174;6.738;2023-02-28T10:29:09;34.83;;;32.63;;
48588;SDS011;34369;51.174;6.738;2023-02-28T10:31:42;36.10;;;34.00;;
48588;SDS011;34369;51.174;6.738;2023-02-28T10:34:14;34.97;;;32.87;;
48588;SDS011;34369;51.174;6.738;2023-02-28T10:36:46;34.80;;;32.70;;
48588;SDS011;34369;51.174;6.738;2023-02-28T10:39:36;34.10;;;31.93;;
48588;SDS011;34369;51.174;6.738;2023-02-28T10:42:21;34.77;;;32.47;;
48588;SDS011;34369;51.174;6.738;2023-02-28T10:45:09;31.27;;;29.27;;
48588;SDS011;34369;51.174;6.738;2023-02-28T10:47:51;34.53;;;32.50;;
48588;SDS011;34369;51.174;6.738;2023-02-28T10:50:27;35.43;;;33.33;;
48588;SDS011;34369;51.174;6.738;2023-02-28T10:53:14;34.23;;;32.23;;
48588;SDS011;34369;51.174;6.738;2023-02-28T10:56:00;34.97;;;32.90;;
48588;SDS011;34369;51.174;6.738;2023-02-28T10:58:42;34.20;;;32.00;;
48588;SDS011;34369;51.174;6.738;2023-02-28T11:01:22;35.27;;;33.03;;
48588;SDS011;34369;51.174;6.738;2023-02-28T11:06:29;33.90;;;31.90;;
48588;SDS011;34369;51.174;6.738;2023-02-28T11:09:03;34.37;;;32.27;;
48588;SDS011;34369;51.174;6.738;2023-02-28T11:11:48;34.20;;;32.10;;
48588;SDS011;34369;51.174;6.738;2023-02-28T11:14:21;33.67;;;31.47;;
48588;SDS011;34369;51.174;6.738;2023-02-28T11:16:58;34.43;;;32.33;;
48588;SDS011;34369;51.174;6.738;2023-02-28T11:19:51;33.50;;;31.40;;
48588;SDS011;34369;51.174;6.738;2023-02-28T11:22:25;34.77;;;32.67;;
48588;SDS011;34369;51.174;6.738;2023-02-28T11:25:01;32.35;;;30.35;;
48588;SDS011;34369;51.174;6.738;2023-02-28T11:27:44;33.53;;;31.53;;
48588;SDS011;34369;51.174;6.738;2023-02-28T11:30:27;32.47;;;30.47;;
48588;SDS011;34369;51.174;6.738;2023-02-28T11:33:25;33.43;;;31.43;;
48588;SDS011;34369;51.174;6.738;2023-02-28T11:36:01;32.67;;;30.58;;
48588;SDS011;34369;51.174;6.738;2023-02-28T11:38:39;32.27;;;30.17;;
48588;SDS011;34369;51.174;6.738;2023-02-28T11:41:16;32.50;;;30.50;;
48588;SDS011;34369;51.174;6.738;2023-02-28T11:44:13;32.63;;;30.63;;
48588;SDS011;34369;51.174;6.738;2023-02-28T11:47:00;32.80;;;30.50;;
48588;SDS011;34369;51.174;6.738;2023-02-28T11:49:42;32.43;;;30.37;;
48588;SDS011;34369;51.174;6.738;2023-02-28T11:52:29;32.30;;;30.30;;
48588;SDS011;34369;51.174;6.738;2023-02-28T11:55:12;32.47;;;30.47;;
48588;SDS011;34369;51.174;6.738;2023-02-28T11:57:53;32.40;;;30.20;;
48588;SDS011;34369;51.174;6.738;2023-02-28T12:00:39;31.75;;;29.75;;
48588;SDS011;34369;51.174;6.738;2023-02-28T12:03:30;32.00;;;30.00;;
48588;SDS011;34369;51.174;6.738;2023-02-28T12:06:18;31.10;;;29.10;;
48588;SDS011;34369;51.174;6.738;2023-02-28T12:09:00;31.60;;;29.60;;
48588;SDS011;34369;51.174;6.738;2023-02-28T12:11:47;31.77;;;29.77;;
48588;SDS011;34369;51.174;6.738;2023-02-28T12:14:31;30.33;;;28.33;;
48588;SDS011;34369;51.174;6.738;2023-02-28T12:17:22;31.10;;;29.15;;
48588;SDS011;34369;51.174;6.738;2023-02-28T12:20:14;30.83;;;28.88;;
48588;SDS011;34369;51.174;6.738;2023-02-28T12:23:01;30.60;;;28.70;;
48588;SDS011;34369;51.174;6.738;2023-02-28T12:25:59;31.50;;;29.43;;
48588;SDS011;34369;51.174;6.738;2023-02-28T12:28:40;31.60;;;29.60;;
48588;SDS011;34369;51.174;6.738;2023-02-28T12:31:18;31.13;;;29.13;;
48588;SDS011;34369;51.174;6.738;2023-02-28T12:33:55;28.73;;;26.88;;
48588;SDS011;34369;51.174;6.738;2023-02-28T12:36:32;30.10;;;28.05;;
48588;SDS011;34369;51.174;6.738;2023-02-28T12:39:09;28.45;;;26.55;;
48588;SDS011;34369;51.174;6.738;2023-02-28T12:41:47;28.17;;;26.27;;
48588;SDS011;34369;51.174;6.738;2023-02-28T12:44:26;28.38;;;26.48;;
48588;SDS011;34369;51.174;6.738;2023-02-28T12:47:03;29.30;;;27.40;;
48588;SDS011;34369;51.174;6.738;2023-02-28T12:49:42;29.30;;;27.40;;
48588;SDS011;34369;51.174;6.738;2023-02-28T12:52:22;28.40;;;26.60;;
48588;SDS011;34369;51.174;6.738;2023-02-28T12:55:05;29.05;;;27.15;;
48588;SDS011;34369;51.174;6.738;2023-02-28T12:57:46;28.35;;;26.45;;
48588;SDS011;34369;51.174;6.738;2023-02-28T13:00:25;28.20;;;26.23;;
48588;SDS011;34369;51.174;6.738;2023-02-28T13:03:12;27.75;;;25.85;;
48588;SDS011;34369;51.174;6.738;2023-02-28T13:06:18;27.73;;;25.83;;
48588;SDS011;34369;51.174;6.738;2023-02-28T13:09:08;27.40;;;25.60;;
48588;SDS011;34369;51.174;6.738;2023-02-28T13:11:44;26.13;;;24.33;;
48588;SDS011;34369;51.174;6.738;2023-02-28T13:14:19;25.45;;;23.75;;
48588;SDS011;34369;51.174;6.738;2023-02-28T13:16:57;24.80;;;23.05;;
48588;SDS011;34369;51.174;6.738;2023-02-28T13:19:34;24.80;;;23.10;;
48588;SDS011;34369;51.174;6.738;2023-02-28T13:22:16;22.92;;;21.33;;
48588;SDS011;34369;51.174;6.738;2023-02-28T13:24:51;23.35;;;21.65;;
48588;SDS011;34369;51.174;6.738;2023-02-28T13:27:35;22.48;;;20.88;;
48588;SDS011;34369;51.174;6.738;2023-02-28T13:33:33;22.23;;;20.63;;
48588;SDS011;34369;51.174;6.738;2023-02-28T13:36:10;21.95;;;20.35;;
48588;SDS011;34369;51.174;6.738;2023-02-28T13:38:56;22.30;;;20.60;;
48588;SDS011;34369;51.174;6.738;2023-02-28T13:48:00;21.50;;;19.90;;
48588;SDS011;34369;51.174;6.738;2023-02-28T13:50:34;21.70;;;20.10;;
48588;SDS011;34369;51.174;6.738;2023-02-28T13:53:19;20.83;;;19.33;;
48588;SDS011;34369;51.174;6.738;2023-02-28T13:59:16;21.40;;;19.80;;
48588;SDS011;34369;51.174;6.738;2023-02-28T14:02:17;21.75;;;20.10;;
48588;SDS011;34369;51.174;6.738;2023-02-28T14:05:16;21.60;;;20.00;;
48588;SDS011;34369;51.174;6.738;2023-02-28T14:07:52;21.17;;;19.63;;
48588;SDS011;34369;51.174;6.738;2023-02-28T14:10:27;22.20;;;20.60;;
48588;SDS011;34369;51.174;6.738;2023-02-28T14:13:10;21.42;;;19.77;;
48588;SDS011;34369;51.174;6.738;2023-02-28T14:15:47;21.75;;;20.15;;
48588;SDS011;34369;51.174;6.738;2023-02-28T14:18:28;21.83;;;20.23;;
48588;SDS011;34369;51.174;6.738;2023-02-28T14:21:08;22.15;;;20.45;;
48588;SDS011;34369;51.174;6.738;2023-02-28T14:26:58;22.77;;;21.08;;
48588;SDS011;34369;51.174;6.738;2023-02-28T14:30:26;22.60;;;21.00;;
48588;SDS011;34369;51.174;6.738;2023-02-28T14:33:19;23.10;;;21.40;;
48588;SDS011;34369;51.174;6.738;2023-02-28T14:36:03;23.35;;;21.65;;
48588;SDS011;34369;51.174;6.738;2023-02-28T14:38:43;23.50;;;21.80;;
48588;SDS011;34369;51.174;6.738;2023-02-28T14:41:22;23.75;;;22.05;;
48588;SDS011;34369;51.174;6.738;2023-02-28T14:43:59;24.48;;;22.67;;
48588;SDS011;34369;51.174;6.738;2023-02-28T14:46:34;25.73;;;23.70;;
48588;SDS011;34369;51.174;6.738;2023-02-28T14:49:13;25.95;;;24.00;;
48588;SDS011;34369;51.174;6.738;2023-02-28T14:52:02;26.33;;;24.60;;
48588;SDS011;34369;51.174;6.738;2023-02-28T14:54:39;26.08;;;24.35;;
48588;SDS011;34369;51.174;6.738;2023-02-28T14:57:20;27.30;;;25.40;;
48588;SDS011;34369;51.174;6.738;2023-02-28T14:59:58;26.27;;;24.42;;
48588;SDS011;34369;51.174;6.738;2023-02-28T15:02:34;26.60;;;24.80;;
48588;SDS011;34369;51.174;6.738;2023-02-28T15:05:19;26.30;;;24.50;;
48588;SDS011;34369;51.174;6.738;2023-02-28T15:08:04;27.02;;;25.15;;
48588;SDS011;34369;51.174;6.738;2023-02-28T15:10:43;27.30;;;25.50;;
48588;SDS011;34369;51.174;6.738;2023-02-28T15:13:16;26.60;;;24.80;;
48588;SDS011;34369;51.174;6.738;2023-02-28T15:15:49;27.55;;;25.70;;
48588;SDS011;34369;51.174;6.738;2023-02-28T15:18:27;27.48;;;25.60;;
48588;SDS011;34369;51.174;6.738;2023-02-28T15:21:06;27.88;;;25.98;;
48588;SDS011;34369;51.174;6.738;2023-02-28T15:23:43;28.15;;;26.25;;
48588;SDS011;34369;51.174;6.738;2023-02-28T15:26:19;29.17;;;27.17;;
48588;SDS011;34369;51.174;6.738;2023-02-28T15:28:57;28.92;;;27.02;;
48588;SDS011;34369;51.174;6.738;2023-02-28T15:31:35;27.80;;;25.98;;
48588;SDS011;34369;51.174;6.738;2023-02-28T15:34:17;27.55;;;25.75;;
48588;SDS011;34369;51.174;6.738;2023-02-28T15:36:53;29.60;;;27.70;;
48588;SDS011;34369;51.174;6.738;2023-02-28T15:39:25;29.60;;;27.65;;
48588;SDS011;34369;51.174;6.738;2023-02-28T15:42:11;29.90;;;27.80;;
48588;SDS011;34369;51.174;6.738;2023-02-28T15:44:47;30.30;;;28.20;;
48588;SDS011;34369;51.174;6.738;2023-02-28T15:47:20;29.00;;;27.10;;
48588;SDS011;34369;51.174;6.738;2023-02-28T15:49:56;30.00;;;28.10;;
48588;SDS011;34369;51.174;6.738;2023-02-28T15:52:33;32.33;;;30.23;;
48588;SDS011;34369;51.174;6.738;2023-02-28T15:55:16;31.83;;;29.60;;
48588;SDS011;34369;51.174;6.738;2023-02-28T15:57:52;30.63;;;28.73;;
48588;SDS011;34369;51.174;6.738;2023-02-28T16:00:29;31.67;;;29.63;;
48588;SDS011;34369;51.174;6.738;2023-02-28T16:09:11;33.57;;;31.47;;